Flight Track Log - Related Links

Times and Time Zones

All times are in EDT time to prevent confusion due to time zone crossing. See the ASQ6060 flight status page for this flight to view local times or setup timezone preferences in your user account.

Time Position Orientation Groundspeed Altitude Reporting Facility
EDT Latitude Longitude Course Direction KTS MPH feet Rate Location/Type
Sat 09:45:49 AM 36.1167 -86.6833 219° Southwest 158 182 1,200  Level Nashville TRACON
Sat 09:46:37 AM 36.0833 -86.7167 302° West 195 224 2,700 1,944 Climbing Nashville TRACON
Sat 09:47:37 AM 36.1167 -86.7833 345° North 191 220 4,700 1,700 Climbing Nashville TRACON
Sat 09:48:37 AM 36.1667 -86.8000 22° Northeast 243 280 6,100 1,946 Climbing Nashville TRACON
Sat 09:50:05 AM 36.2644 -86.7508 28° Northeast 253 291 9,500 2,068 Climbing Memphis Center
Sat 09:51:05 AM 36.3300 -86.7067 26° Northeast 253 291 11,200 1,400 Climbing Memphis Center
Sat 09:52:05 AM 36.4078 -86.6594 26° Northeast 281 323 12,300 1,041 Climbing Memphis Center
Sat 09:53:06 AM 36.4958 -86.6064 27° Northeast 320 368 13,300 1,200 Climbing Memphis Center
Sat 09:54:05 AM 36.5858 -86.5503 27° Northeast 353 406 14,700 1,462 Climbing Memphis Center
Sat 09:55:05 AM 36.6800 -86.4917 27° Northeast 361 415 16,200 1,200 Climbing Memphis Center
Sat 09:56:05 AM 36.7719 -86.4328 26° Northeast 366 421 17,100 1,000 Climbing Memphis Center
Sat 09:57:05 AM 36.8719 -86.3708 26° Northeast 380 437 18,200 1,379 Climbing Memphis Center
Sat 09:58:46 AM 37.0375 -86.2681 28° Northeast 390 449 20,800 1,481 Climbing Indianapolis Center
Sat 09:59:47 AM 37.1306 -86.2064 27° Northeast 381 438 22,200 1,289 Climbing Indianapolis Center
Sat 10:00:47 AM 37.2281 -86.1444 26° Northeast 381 438 23,400 1,311 Climbing Indianapolis Center
Sat 10:01:46 AM 37.3253 -86.0853 315° West 381 438 24,800 1,400 Climbing Indianapolis Center
Sat 10:03:47 AM 37.4369 -86.2278 279° West 326 375 27,600 1,260 Climbing Indianapolis Center
Sat 10:04:47 AM 37.4492 -86.3300 276° West 337 388 28,600 1,100 Climbing Indianapolis Center
Sat 10:05:47 AM 37.4586 -86.4483 277° West 352 405 29,800 1,200 Climbing Indianapolis Center
Sat 10:06:47 AM 37.4706 -86.5639 277° West 344 396 31,000 1,100 Climbing Indianapolis Center
Sat 10:07:47 AM 37.4819 -86.6822 277° West 344 396 32,000 1,000 Climbing Indianapolis Center
Sat 10:08:47 AM 37.4936 -86.7950 276° West 339 390 33,000 950 Climbing Indianapolis Center
Sat 10:09:47 AM 37.5028 -86.9108 276° West 334 384 33,900 850 Climbing Indianapolis Center
Sat 10:10:47 AM 37.5119 -87.0289 277° West 334 384 34,700 706 Climbing Indianapolis Center
Sat 10:11:46 AM 37.5231 -87.1447 276° West 334 384 35,300 550 Climbing Indianapolis Center
Sat 10:12:47 AM 37.5336 -87.2736 277° West 334 384 35,800 347 Climbing Indianapolis Center
Sat 10:13:47 AM 37.5444 -87.3919 276° West 334 384 36,000 100 Climbing Indianapolis Center
Sat 10:14:47 AM 37.5550 -87.5131 275° West 339 390 36,000  Level Indianapolis Center
Sat 10:15:53 AM 37.5650 -87.6597 278° West 366 421 36,000  Level Memphis Center
Sat 10:16:53 AM 37.5803 -87.7978 275° West 388 447 36,000  Level Memphis Center
Sat 10:19:12 AM 37.6028 -88.1306 275° West 410 472 36,000  Level Kansas City Center
Sat 10:20:12 AM 37.6128 -88.2817 276° West 430 495 36,000  Level Kansas City Center
Sat 10:21:13 AM 37.6253 -88.4406 276° West 445 512 36,000  Level Kansas City Center
Sat 10:22:12 AM 37.6372 -88.5969 279° West 451 519 36,000  Level Kansas City Center
Sat 10:23:12 AM 37.6547 -88.7375 274° West 451 519 36,000  Level Kansas City Center
Sat 10:24:12 AM 37.6644 -88.8992 275° West 462 532 36,000  Level Kansas City Center
Sat 10:25:12 AM 37.6758 -89.0558 275° West 462 532 36,000  Level Kansas City Center
Sat 10:26:12 AM 37.6872 -89.2178 275° West 462 532 36,000  Level Kansas City Center
Sat 10:27:12 AM 37.6986 -89.3797 274° West 462 532 36,000  Level Kansas City Center
Sat 10:28:12 AM 37.7078 -89.5447 275° West 462 532 36,000  Level Kansas City Center
Sat 10:29:12 AM 37.7183 -89.7042 274° West 462 532 36,000  Level Kansas City Center
Sat 10:30:12 AM 37.7267 -89.8611 275° West 448 516 36,000  Level Kansas City Center
Sat 10:31:12 AM 37.7375 -90.0339 275° West 460 529 36,000  Level Kansas City Center
Sat 10:32:12 AM 37.7469 -90.1803 275° West 465 535 36,000  Level Kansas City Center
Sat 10:33:12 AM 37.7569 -90.3425 273° West 460 529 36,000  Level Kansas City Center
Sat 10:34:12 AM 37.7647 -90.5103 275° West 444 511 36,000  Level Kansas City Center
Sat 10:35:12 AM 37.7764 -90.6725 274° West 449 517 36,000  Level Kansas City Center
Sat 10:36:12 AM 37.7856 -90.8350 273° West 455 524 36,000  Level Kansas City Center
Sat 10:37:12 AM 37.7928 -90.9975 274° West 463 533 36,000  Level Kansas City Center
Sat 10:38:12 AM 37.8014 -91.1550 274° West 463 533 36,000  Level Kansas City Center
Sat 10:39:12 AM 37.8100 -91.3150 274° West 456 525 36,000  Level Kansas City Center
Sat 10:40:12 AM 37.8183 -91.4722 274° West 456 525 36,000  Level Kansas City Center
Sat 10:41:12 AM 37.8264 -91.6350 274° West 461 531 36,000  Level Kansas City Center
Sat 10:42:13 AM 37.8342 -91.7925 274° West 461 531 36,000  Level Kansas City Center
Sat 10:43:12 AM 37.8419 -91.9525 272° West 461 531 36,000  Level Kansas City Center
Sat 10:44:12 AM 37.8472 -92.1103 271° West 461 531 36,000  Level Kansas City Center
Sat 10:45:12 AM 37.8503 -92.2653 275° West 461 531 36,000  Level Kansas City Center
Sat 10:46:12 AM 37.8592 -92.4019 273° West 461 531 36,000  Level Kansas City Center
Sat 10:47:12 AM 37.8664 -92.5806 274° West 468 539 36,000  Level Kansas City Center
Sat 10:48:12 AM 37.8750 -92.7381 273° West 461 531 36,000  Level Kansas City Center
Sat 10:49:12 AM 37.8814 -92.8958 273° West 456 525 36,000  Level Kansas City Center
Sat 10:50:12 AM 37.8878 -93.0589 273° West 456 525 36,000  Level Kansas City Center
Sat 10:51:12 AM 37.8936 -93.2167 273° West 456 525 36,000  Level Kansas City Center
Sat 10:52:12 AM 37.8994 -93.3717 273° West 456 525 36,000  Level Kansas City Center
Sat 10:53:12 AM 37.9050 -93.5322 272° West 461 531 36,000  Level Kansas City Center
Sat 10:54:12 AM 37.9103 -93.6900 271° West 456 525 36,000  Level Kansas City Center
Sat 10:55:12 AM 37.9133 -93.8453 272° West 456 525 36,000  Level Kansas City Center
Sat 10:56:12 AM 37.9183 -94.0033 272° West 456 525 36,000  Level Kansas City Center
Sat 10:57:12 AM 37.9231 -94.1611 272° West 456 525 36,000  Level Kansas City Center
Sat 10:58:12 AM 37.9275 -94.3217 270° West 456 525 36,000  Level Kansas City Center
Sat 10:59:12 AM 37.9278 -94.4797 272° West 456 525 36,000  Level Kansas City Center
Sat 11:00:12 AM 37.9319 -94.6350 271° West 456 525 36,000  Level Kansas City Center
Sat 11:01:12 AM 37.9336 -94.8114 272° West 456 525 36,000  Level Kansas City Center
Sat 11:02:12 AM 37.9372 -94.9667 272° West 456 525 36,000  Level Kansas City Center
Sat 11:03:13 AM 37.9408 -95.1117 272° West 456 525 36,000  Level Kansas City Center
Sat 11:04:12 AM 37.9442 -95.2669 271° West 457 526 36,000  Level Kansas City Center
Sat 11:05:12 AM 37.9469 -95.4436 271° West 457 526 36,000  Level Kansas City Center
Sat 11:06:12 AM 37.9500 -95.5989 271° West 450 518 36,000  Level Kansas City Center
Sat 11:07:12 AM 37.9525 -95.7569 272° West 445 512 36,000  Level Kansas City Center
Sat 11:08:12 AM 37.9572 -95.9019 270° West 433 498 36,000  Level Kansas City Center
Sat 11:09:12 AM 37.9575 -96.0361 271° West 433 498 36,000  Level Kansas City Center
Sat 11:10:12 AM 37.9594 -96.2047 270° West 433 498 36,000  Level Kansas City Center
Sat 11:11:12 AM 37.9594 -96.3550 271° West 433 498 36,000  Level Kansas City Center
Sat 11:12:12 AM 37.9611 -96.5078 271° West 438 504 36,000  Level Kansas City Center
Sat 11:13:12 AM 37.9625 -96.6606 270° West 438 504 36,000  Level Kansas City Center
Sat 11:14:12 AM 37.9619 -96.8106 272° West 438 504 36,000  Level Kansas City Center
Sat 11:15:12 AM 37.9650 -96.9608 271° West 438 504 36,000  Level Kansas City Center
Sat 11:16:12 AM 37.9661 -97.1164 269° West 438 504 36,000  Level Kansas City Center
Sat 11:17:12 AM 37.9647 -97.2692 271° West 438 504 36,000  Level Kansas City Center
Sat 11:18:12 AM 37.9658 -97.3903 270° West 438 504 36,000  Level Kansas City Center
Sat 11:19:12 AM 37.9656 -97.5719 270° West 438 504 36,000  Level Kansas City Center
Sat 11:20:12 AM 37.9661 -97.7092 270° West 438 504 36,000  Level Kansas City Center
Sat 11:21:12 AM 37.9658 -97.8750 269° West 438 504 36,000  Level Kansas City Center
Sat 11:22:12 AM 37.9639 -98.0092 271° West 438 504 36,000  Level Kansas City Center
Sat 11:23:12 AM 37.9650 -98.1806 269° West 433 498 36,000  Level Kansas City Center
Sat 11:24:12 AM 37.9628 -98.3200 269° West 433 498 36,000  Level Kansas City Center
Sat 11:25:12 AM 37.9603 -98.4622 271° West 416 479 36,000  Level Kansas City Center
Sat 11:26:12 AM 37.9617 -98.6069 269° West 416 479 36,000  Level Kansas City Center
Sat 11:27:12 AM 37.9586 -98.7569 269° West 416 479 36,000  Level Kansas City Center
Sat 11:28:12 AM 37.9575 -98.9019 269° West 423 487 36,000  Level Kansas City Center
Sat 11:29:12 AM 37.9561 -99.0467 270° West 418 481 36,000  Level Kansas City Center
Sat 11:30:12 AM 37.9569 -99.1917 267° West 418 481 36,000  Level Kansas City Center
Sat 11:31:12 AM 37.9508 -99.3414 268° West 418 481 36,000  Level Kansas City Center
Sat 11:32:12 AM 37.9469 -99.4858 270° West 418 481 36,000  Level Kansas City Center
Sat 11:33:12 AM 37.9461 -99.6069 269° West 401 461 36,000  Level Kansas City Center
Sat 11:34:12 AM 37.9439 -99.7544 268° West 412 474 36,000  Level Kansas City Center
Sat 11:35:12 AM 37.9392 -99.9069 269° West 412 474 36,000  Level Kansas City Center
Sat 11:36:12 AM 37.9367 -100.0489 268° West 406 467 36,000  Level Kansas City Center
Sat 11:37:12 AM 37.9328 -100.1775 269° West 406 467 36,000  Level Kansas City Center
Sat 11:38:12 AM 37.9314 -100.3381 267° West 411 473 36,000  Level Kansas City Center
Sat 11:39:12 AM 37.9261 -100.4853 269° West 422 486 36,000  Level Kansas City Center
Sat 11:40:12 AM 37.9250 -100.6325 276° West 422 486 36,000  Level Kansas City Center
Sat 11:41:12 AM 37.9367 -100.7653 296° West 422 486 36,000  Level Kansas City Center
Sat 11:42:12 AM 37.9936 -100.9122 295° West 422 486 36,000  Level Kansas City Center
Sat 11:43:49 AM 38.0761 -101.1328 297° West 430 495 36,000  Level Denver Center
Sat 11:44:49 AM 38.1256 -101.2558 295° West 435 501 36,000  Level Denver Center
Sat 11:45:49 AM 38.1756 -101.3922 295° West 430 495 36,000  Level Denver Center
Sat 11:46:49 AM 38.2300 -101.5389 296° West 425 489 36,000  Level Denver Center
Sat 11:47:49 AM 38.2817 -101.6756 296° West 430 495 36,000  Level Denver Center
Sat 11:48:49 AM 38.3286 -101.7994 295° West 430 495 36,000  Level Denver Center
Sat 11:49:49 AM 38.3847 -101.9519 295° West 430 495 36,000 -400 Level Denver Center
Sat 11:50:49 AM 38.4361 -102.0919 295° West 438 504 35,200 -1,400 Descending Denver Center
Sat 11:51:49 AM 38.4894 -102.2372 296° West 443 510 33,200 -1,950 Descending Denver Center
Sat 11:52:49 AM 38.5381 -102.3669 295° West 450 518 31,300 -1,600 Descending Denver Center
Sat 11:53:49 AM 38.5958 -102.5283 294° West 450 518 30,000 -650 Descending Denver Center
Sat 11:54:49 AM 38.6467 -102.6717 297° West 450 518 30,000  Level Denver Center
Sat 11:55:49 AM 38.6919 -102.7864 295° West 434 499 30,000  Level Denver Center
Sat 11:56:49 AM 38.7422 -102.9222 294° West 423 487 30,000  Level Denver Center
Sat 11:57:49 AM 38.7903 -103.0583 299° West 418 481 30,000  Level Denver Center
Sat 11:58:49 AM 38.8483 -103.1914 314° West 423 487 30,000 -900 Level Denver Center
Sat 11:59:49 AM 38.9328 -103.3050 314° West 428 493 28,200 -1,900 Descending Denver Center
Sat 12:00:49 PM 39.0150 -103.4161 314° West 434 499 26,200 -2,050 Descending Denver Center
Sat 12:01:49 PM 39.0972 -103.5275 314° West 434 499 24,100 -2,050 Descending Denver Center
Sat 12:02:49 PM 39.1814 -103.6417 314° West 424 488 22,100 -2,000 Descending Denver Center
Sat 12:03:49 PM 39.2547 -103.7408 314° West 398 458 20,100 -1,550 Descending Denver Center
Sat 12:04:49 PM 39.3236 -103.8319 312° West 366 421 19,000 -550 Descending Denver Center
Sat 12:05:49 PM 39.3839 -103.9183 304° West 341 392 19,000  Level Denver Center
Sat 12:06:49 PM 39.4361 -104.0186 254° West 336 387 19,000 -600 Level Denver Center
Sat 12:07:49 PM 39.4114 -104.1269 256° West 298 343 17,800 -1,350 Descending Denver Center
Sat 12:08:49 PM 39.3906 -104.2325 274° West 304 350 16,300 -1,700 Descending Denver Center
Sat 12:09:49 PM 39.3967 -104.3450 273° West 309 356 14,400 -1,670 Descending Denver Center
Sat 12:10:44 PM 39.4000 -104.4333 282° West 293 337 13,100 -1,043 Descending Denver TRACON
Sat 12:11:44 PM 39.4167 -104.5333 314° West 251 289 12,400 -1,050 Descending Denver TRACON
Sat 12:12:44 PM 39.4667 -104.6000 322° Northwest 266 306 11,000 -1,200 Descending Denver TRACON
Sat 12:13:44 PM 39.5167 -104.6500 349° North 244 281 10,000 -526 Descending Denver TRACON
Sat 12:14:38 PM 39.5833 -104.6667 360° North 221 254 10,000 -474 Level Denver TRACON
Sat 12:15:38 PM 39.6333 -104.6667 360° North 229 264 9,100 -1,050 Descending Denver TRACON
Sat 12:16:38 PM 39.7000 -104.6667 360° North 223 257 7,900 -1,150 Descending Denver TRACON
Sat 12:17:38 PM 39.7500 -104.6667 360° North 189 217 6,800 -950 Descending Denver TRACON
Sat 12:18:38 PM 39.8000 -104.6667 121° Southeast 151 174 6,000 -800 Descending Denver TRACON
Sat 12:26:32 PM 39.6490 -104.3457 313° West  Level FlightAware Approximate
Sat 12:27:32 PM 39.7258 -104.4527 331° Northwest  Level FlightAware Approximate
Sat 12:28:32 PM 39.8183 -104.5191 331° Northwest  Level FlightAware Approximate

Login

Don't have an account? Register now (free) for customized features, flight alerts, and more!